Time;durP1;ratioP1;P1;durP2;ratioP2;P2;SDS_P1;SDS_P2;PMS_P1;PMS_P2;Temp;Humidity;BMP_temperature;BMP_pressure;BME280_temperature;BME280_humidity;BME280_pressure;Samples;Min_cycle;Max_cycle;Signal;HPM_P1;HPM_P2
2023/06/09 00:00:18;;;;;;;;;;;13.30;99.90;;;;;;5068053;28;19929;-84
2023/06/09 00:02:45;;;;;;;;;;;13.30;99.90;;;;;;5065187;28;20010;-82
2023/06/09 00:05:11;;;;;;;;;;;13.30;99.90;;;;;;5066552;28;19931;-88
2023/06/09 00:07:37;;;;;;;;;;;13.30;99.90;;;;;;5068308;28;19924;-83
2023/06/09 00:10:03;;;;;;;;;;;13.30;99.90;;;;;;5068658;28;19934;-85
2023/06/09 00:12:28;;;;;;;;;;;13.30;99.90;;;;;;5067848;28;19925;-81
2023/06/09 00:14:54;;;;;;;;;;;13.30;99.90;;;;;;5067210;28;19974;-83
2023/06/09 00:17:20;;;;;;;;;;;13.30;99.90;;;;;;5066996;28;20395;-81
2023/06/09 00:19:46;;;;;;;;;;;13.30;99.90;;;;;;5069970;28;20019;-85
2023/06/09 00:22:13;;;;;;;;;;;13.30;99.90;;;;;;5069779;28;19933;-82
2023/06/09 00:24:39;;;;;;;;;;;13.20;99.90;;;;;;5068198;28;20454;-81
2023/06/09 00:27:06;;;;;;;;;;;13.20;99.90;;;;;;5066865;28;19932;-82
2023/06/09 00:29:32;;;;;;;;;;;13.30;99.90;;;;;;5056003;28;19982;-82
2023/06/09 00:31:57;;;;;;;;;;;13.30;99.90;;;;;;5068989;28;19928;-82
2023/06/09 00:34:23;;;;;;;;;;;13.20;99.90;;;;;;5067287;28;20295;-82
2023/06/09 00:36:48;;;;;;;;;;;13.20;99.90;;;;;;5064844;28;19924;-82
2023/06/09 00:39:14;;;;;;;;;;;13.20;99.90;;;;;;5065202;28;19951;-82
2023/06/09 00:41:41;;;;;;;;;;;13.20;99.90;;;;;;5065333;28;19980;-84
2023/06/09 00:44:07;;;;;;;;;;;13.30;99.90;;;;;;5067679;28;19928;-83
2023/06/09 00:46:33;;;;;;;;;;;13.20;99.90;;;;;;5072903;28;20023;-82
2023/06/09 00:49:00;;;;;;;;;;;13.30;99.90;;;;;;5072432;28;19935;-82
2023/06/09 00:51:25;;;;;;;;;;;13.30;99.90;;;;;;5071192;28;19978;-85
2023/06/09 00:53:51;;;;;;;;;;;13.20;99.90;;;;;;5064956;28;19925;-82
2023/06/09 00:56:18;;;;;;;;;;;13.20;99.90;;;;;;5046476;28;20287;-83
2023/06/09 00:58:44;;;;;;;;;;;13.10;99.90;;;;;;5070248;28;20161;-82
2023/06/09 01:01:09;;;;;;;;;;;13.20;99.90;;;;;;5070582;28;20041;-82
2023/06/09 01:03:38;;;;;;;;;;;13.20;99.90;;;;;;5068131;28;19924;-83
2023/06/09 01:06:09;;;;;;;;;;;13.20;99.90;;;;;;5060355;28;19924;-86
2023/06/09 01:08:37;;;;;;;;;;;13.10;99.90;;;;;;5069191;28;19973;-84
2023/06/09 01:11:07;;;;;;;;;;;13.10;99.90;;;;;;5071719;28;20286;-82
2023/06/09 01:13:43;;;;;;;;;;;13.10;99.90;;;;;;5071064;28;20371;-82
2023/06/09 01:16:11;;;;;;;;;;;13.10;99.90;;;;;;5066373;28;19932;-82
2023/06/09 01:18:36;;;;;;;;;;;13.10;99.90;;;;;;5068857;28;19979;-82
2023/06/09 01:21:21;;;;;;;;;;;13.10;99.90;;;;;;5062545;28;19964;-82
2023/06/09 01:23:53;;;;;;;;;;;13.10;99.90;;;;;;5067374;28;19935;-83
2023/06/09 01:26:20;;;;;;;;;;;13.10;99.90;;;;;;5070512;28;20024;-83
2023/06/09 01:28:47;;;;;;;;;;;13.10;99.90;;;;;;5072174;28;19925;-82
2023/06/09 01:31:15;;;;;;;;;;;13.10;99.90;;;;;;5071642;28;19929;-83
2023/06/09 01:33:41;;;;;;;;;;;13.10;99.90;;;;;;5072325;28;19947;-83
2023/06/09 01:36:07;;;;;;;;;;;13.00;99.90;;;;;;5070881;28;20383;-83
2023/06/09 01:38:32;;;;;;;;;;;13.00;99.90;;;;;;5071016;28;19951;-84
2023/06/09 01:40:58;;;;;;;;;;;13.00;99.90;;;;;;5069618;28;19925;-82
2023/06/09 01:43:23;;;;;;;;;;;13.00;99.90;;;;;;5071499;28;19925;-82
2023/06/09 01:45:49;;;;;;;;;;;13.00;99.90;;;;;;5072215;28;19928;-82
2023/06/09 01:48:19;;;;;;;;;;;13.00;99.90;;;;;;5071290;28;20062;-83
2023/06/09 01:50:55;;;;;;;;;;;13.00;99.90;;;;;;5072451;28;19935;-83
2023/06/09 01:53:25;;;;;;;;;;;12.90;99.90;;;;;;5067647;28;19936;-83
2023/06/09 01:55:52;;;;;;;;;;;12.90;99.90;;;;;;5073413;28;20296;-83
2023/06/09 01:58:22;;;;;;;;;;;12.90;99.90;;;;;;5070250;28;19932;-84
2023/06/09 02:00:49;;;;;;;;;;;12.90;99.90;;;;;;5068490;28;19964;-83
2023/06/09 02:03:16;;;;;;;;;;;12.80;99.90;;;;;;5075617;28;20017;-83
2023/06/09 02:05:43;;;;;;;;;;;12.80;99.90;;;;;;5076149;28;20019;-83
2023/06/09 02:08:09;;;;;;;;;;;12.70;99.90;;;;;;5075530;28;19925;-82
2023/06/09 02:10:35;;;;;;;;;;;12.80;99.90;;;;;;5074380;28;19978;-82
2023/06/09 02:13:14;;;;;;;;;;;12.70;99.90;;;;;;5075704;28;19928;-83
2023/06/09 02:15:41;;;;;;;;;;;12.70;99.90;;;;;;5074429;28;19931;-83
2023/06/09 02:18:09;;;;;;;;;;;12.70;99.90;;;;;;5075111;28;20361;-83
2023/06/09 02:20:35;;;;;;;;;;;12.70;99.90;;;;;;5070886;28;20011;-83
2023/06/09 02:23:01;;;;;;;;;;;12.70;99.90;;;;;;5067577;28;20439;-82
2023/06/09 02:25:28;;;;;;;;;;;12.70;99.90;;;;;;5066660;28;19925;-83
2023/06/09 02:27:53;;;;;;;;;;;12.60;99.90;;;;;;5069532;28;19947;-82
2023/06/09 02:30:19;;;;;;;;;;;12.70;99.90;;;;;;5073747;28;19928;-82
2023/06/09 02:32:45;;;;;;;;;;;12.50;99.90;;;;;;5074500;28;19924;-82
2023/06/09 02:35:10;;;;;;;;;;;12.60;99.90;;;;;;5074977;28;20268;-83
2023/06/09 02:37:36;;;;;;;;;;;12.60;99.90;;;;;;5075241;28;19924;-82
2023/06/09 02:40:03;;;;;;;;;;;12.50;99.90;;;;;;5073736;28;19963;-82
2023/06/09 02:42:29;;;;;;;;;;;12.40;99.90;;;;;;5072891;28;19935;-82
2023/06/09 02:44:55;;;;;;;;;;;12.30;99.90;;;;;;5074621;28;19928;-82
2023/06/09 02:47:20;;;;;;;;;;;12.30;99.90;;;;;;5069119;28;19924;-82
2023/06/09 02:49:46;;;;;;;;;;;12.30;99.90;;;;;;5070439;28;19974;-82
2023/06/09 02:52:11;;;;;;;;;;;12.30;99.90;;;;;;5072756;28;19928;-82
2023/06/09 02:54:37;;;;;;;;;;;12.30;99.90;;;;;;5074732;28;20415;-82
2023/06/09 02:57:04;;;;;;;;;;;12.30;99.90;;;;;;5073426;28;19924;-83
2023/06/09 02:59:29;;;;;;;;;;;12.20;99.90;;;;;;5074097;28;19962;-81
2023/06/09 03:01:55;;;;;;;;;;;12.20;99.90;;;;;;5055696;28;19975;-82
2023/06/09 03:04:21;;;;;;;;;;;12.20;99.90;;;;;;5072944;28;19932;-82
2023/06/09 03:06:49;;;;;;;;;;;12.10;99.90;;;;;;5073924;28;19928;-84
2023/06/09 03:09:15;;;;;;;;;;;12.10;99.90;;;;;;5057268;28;19925;-83
2023/06/09 03:11:41;;;;;;;;;;;12.10;99.90;;;;;;5073158;28;19932;-82
2023/06/09 03:14:07;;;;;;;;;;;12.10;99.90;;;;;;5073593;28;19924;-83
2023/06/09 03:16:32;;;;;;;;;;;12.10;99.90;;;;;;5072748;28;19935;-83
2023/06/09 03:18:58;;;;;;;;;;;12.10;99.90;;;;;;5072245;28;20290;-83
2023/06/09 03:21:24;;;;;;;;;;;12.10;99.90;;;;;;5072647;28;19930;-83
2023/06/09 03:23:50;;;;;;;;;;;12.00;99.90;;;;;;5072240;28;20444;-83
2023/06/09 03:26:17;;;;;;;;;;;12.00;99.90;;;;;;5072923;28;19937;-84
2023/06/09 03:28:43;;;;;;;;;;;12.00;99.90;;;;;;5072008;28;20329;-82
2023/06/09 03:31:09;;;;;;;;;;;12.00;99.90;;;;;;5072138;28;19925;-82
2023/06/09 03:33:35;;;;;;;;;;;12.00;99.90;;;;;;5071516;28;19968;-82
2023/06/09 03:36:00;;;;;;;;;;;12.00;99.90;;;;;;5072620;28;19925;-81
2023/06/09 03:38:26;;;;;;;;;;;12.00;99.90;;;;;;5072889;28;19932;-82
2023/06/09 03:40:52;;;;;;;;;;;12.00;99.90;;;;;;5072760;28;19932;-82
2023/06/09 03:43:17;;;;;;;;;;;12.10;99.90;;;;;;5072400;28;19975;-83
2023/06/09 03:45:43;;;;;;;;;;;12.10;99.90;;;;;;5070563;28;20007;-83
2023/06/09 03:48:08;;;;;;;;;;;12.10;99.90;;;;;;5061282;28;19951;-81
2023/06/09 03:50:34;;;;;;;;;;;12.10;99.90;;;;;;5072537;28;19928;-82
2023/06/09 03:53:00;;;;;;;;;;;12.10;99.90;;;;;;5072625;28;19969;-83
2023/06/09 03:55:29;;;;;;;;;;;12.10;99.90;;;;;;5072015;28;19928;-83
2023/06/09 03:57:55;;;;;;;;;;;12.10;99.90;;;;;;5070942;28;20383;-83
2023/06/09 04:00:21;;;;;;;;;;;12.10;99.90;;;;;;5072917;28;19924;-83
2023/06/09 04:02:47;;;;;;;;;;;12.10;99.90;;;;;;5072534;28;20045;-82
2023/06/09 04:05:12;;;;;;;;;;;12.10;99.90;;;;;;5064245;28;20398;-84
2023/06/09 04:07:39;;;;;;;;;;;12.20;99.90;;;;;;5064197;28;19963;-83
2023/06/09 04:10:05;;;;;;;;;;;12.20;99.90;;;;;;5071572;28;20404;-83
2023/06/09 04:12:31;;;;;;;;;;;12.20;99.90;;;;;;5054280;28;19936;-82
2023/06/09 04:14:56;;;;;;;;;;;12.20;99.90;;;;;;5051933;28;19928;-83
2023/06/09 04:17:22;;;;;;;;;;;12.20;99.90;;;;;;5059153;28;19964;-82
2023/06/09 04:19:48;;;;;;;;;;;12.30;99.90;;;;;;5070937;28;19928;-82
2023/06/09 04:22:13;;;;;;;;;;;12.30;99.90;;;;;;5072506;28;20405;-82
2023/06/09 04:24:39;;;;;;;;;;;12.30;99.90;;;;;;5071665;28;19928;-82
2023/06/09 04:27:04;;;;;;;;;;;12.30;99.90;;;;;;5069354;28;19970;-82
2023/06/09 04:29:33;;;;;;;;;;;12.30;99.90;;;;;;5063466;28;20019;-83
2023/06/09 04:31:59;;;;;;;;;;;12.40;99.90;;;;;;5057328;28;20391;-83
2023/06/09 04:34:28;;;;;;;;;;;12.50;99.90;;;;;;5068693;28;20019;-83
2023/06/09 04:36:55;;;;;;;;;;;12.50;99.90;;;;;;5070251;28;20299;-82
2023/06/09 04:39:21;;;;;;;;;;;12.60;99.90;;;;;;5072453;28;20405;-86
2023/06/09 04:41:52;;;;;;;;;;;12.70;99.90;;;;;;5054982;28;19925;-83
2023/06/09 04:44:18;;;;;;;;;;;12.80;99.90;;;;;;5072450;28;19998;-82
2023/06/09 04:46:44;;;;;;;;;;;12.90;99.90;;;;;;5070735;28;20371;-82
2023/06/09 04:49:09;;;;;;;;;;;13.00;99.90;;;;;;5071136;28;19931;-82
2023/06/09 04:51:41;;;;;;;;;;;13.20;99.90;;;;;;5072330;28;20755;-83
2023/06/09 04:54:08;;;;;;;;;;;13.40;99.90;;;;;;5071406;28;20031;-83
2023/06/09 04:56:36;;;;;;;;;;;13.40;99.90;;;;;;5068076;28;20042;-83
2023/06/09 04:59:02;;;;;;;;;;;13.50;99.90;;;;;;5066520;28;19932;-82
2023/06/09 05:01:29;;;;;;;;;;;13.50;99.90;;;;;;5070742;28;20011;-80
2023/06/09 05:03:55;;;;;;;;;;;13.70;99.90;;;;;;5062708;28;20278;-81
2023/06/09 05:06:20;;;;;;;;;;;13.80;99.90;;;;;;5072635;28;19984;-81
2023/06/09 05:08:47;;;;;;;;;;;13.90;99.90;;;;;;5071015;28;20085;-81
2023/06/09 05:11:12;;;;;;;;;;;14.00;99.90;;;;;;5072519;28;19934;-81
2023/06/09 05:13:38;;;;;;;;;;;14.20;99.90;;;;;;5071085;28;20019;-82
2023/06/09 05:16:04;;;;;;;;;;;14.50;99.90;;;;;;5071242;28;19964;-82
2023/06/09 05:18:30;;;;;;;;;;;14.90;99.90;;;;;;5070207;28;19932;-83
2023/06/09 05:20:56;;;;;;;;;;;15.20;99.90;;;;;;5072167;28;19925;-81
2023/06/09 05:23:22;;;;;;;;;;;15.40;99.90;;;;;;5072135;28;19928;-84
2023/06/09 05:25:49;;;;;;;;;;;15.70;99.90;;;;;;5072127;28;19978;-81
2023/06/09 05:28:15;;;;;;;;;;;16.00;99.90;;;;;;5070835;28;19929;-82
2023/06/09 05:30:40;;;;;;;;;;;16.20;99.90;;;;;;5068147;28;20425;-82
2023/06/09 05:33:06;;;;;;;;;;;16.50;99.90;;;;;;5062306;28;20411;-82
2023/06/09 05:35:32;;;;;;;;;;;16.80;99.90;;;;;;5069049;28;19933;-81
2023/06/09 05:37:58;;;;;;;;;;;17.10;99.90;;;;;;5064513;28;19970;-81
2023/06/09 05:40:23;;;;;;;;;;;17.30;99.90;;;;;;5068239;28;20427;-82
2023/06/09 05:42:49;;;;;;;;;;;17.60;99.90;;;;;;5073028;28;19925;-81
2023/06/09 05:45:15;;;;;;;;;;;17.80;99.90;;;;;;5063654;28;19932;-88
2023/06/09 05:47:41;;;;;;;;;;;18.00;99.90;;;;;;5072198;28;19924;-82
2023/06/09 05:50:06;;;;;;;;;;;18.20;99.90;;;;;;5065130;28;19924;-81
2023/06/09 05:52:32;;;;;;;;;;;18.30;99.90;;;;;;5068596;28;19932;-81
2023/06/09 05:54:58;;;;;;;;;;;18.50;99.90;;;;;;5073808;28;19931;-81
2023/06/09 05:57:25;;;;;;;;;;;18.60;99.90;;;;;;5068322;28;19928;-85
2023/06/09 05:59:51;;;;;;;;;;;18.90;99.90;;;;;;5067916;28;19975;-86
2023/06/09 06:02:17;;;;;;;;;;;19.10;99.90;;;;;;5070187;28;19975;-83
2023/06/09 06:04:43;;;;;;;;;;;19.30;99.90;;;;;;5069732;28;19939;-83
2023/06/09 06:07:08;;;;;;;;;;;19.50;99.90;;;;;;5071112;28;20420;-82
2023/06/09 06:09:34;;;;;;;;;;;19.70;99.90;;;;;;5068171;28;19971;-82
2023/06/09 06:12:00;;;;;;;;;;;19.90;99.90;;;;;;5073148;28;20291;-81
2023/06/09 06:14:25;;;;;;;;;;;20.00;99.90;;;;;;5072181;28;19929;-82
2023/06/09 06:16:51;;;;;;;;;;;20.20;99.90;;;;;;5074621;28;19925;-81
2023/06/09 06:19:16;;;;;;;;;;;20.30;99.90;;;;;;5065476;28;19925;-85
2023/06/09 06:21:42;;;;;;;;;;;20.40;99.90;;;;;;5070261;28;19993;-82
2023/06/09 06:24:10;;;;;;;;;;;20.50;99.90;;;;;;5072118;28;19929;-83
2023/06/09 06:26:36;;;;;;;;;;;20.50;99.90;;;;;;5073794;28;19932;-82
2023/06/09 06:29:02;;;;;;;;;;;20.60;99.90;;;;;;5069944;28;19925;-83
2023/06/09 06:31:29;;;;;;;;;;;20.70;99.90;;;;;;5069908;28;19931;-85
2023/06/09 06:33:55;;;;;;;;;;;21.00;99.90;;;;;;5071912;28;20018;-82
2023/06/09 06:36:21;;;;;;;;;;;21.20;99.90;;;;;;5066376;28;20003;-83
2023/06/09 06:38:47;;;;;;;;;;;21.30;99.90;;;;;;5070826;28;19934;-82
2023/06/09 06:41:13;;;;;;;;;;;21.40;99.90;;;;;;5065321;28;20011;-83
2023/06/09 06:43:40;;;;;;;;;;;21.40;99.90;;;;;;5072286;28;19924;-83
2023/06/09 06:46:06;;;;;;;;;;;21.20;99.90;;;;;;5062384;28;19993;-85
2023/06/09 06:48:32;;;;;;;;;;;21.30;99.90;;;;;;5063114;28;20377;-82
2023/06/09 06:50:57;;;;;;;;;;;21.50;99.90;;;;;;5067901;28;19924;-83
2023/06/09 06:53:24;;;;;;;;;;;21.60;99.90;;;;;;5072732;28;20292;-82
2023/06/09 06:55:49;;;;;;;;;;;21.90;99.90;;;;;;5071013;28;19977;-83
2023/06/09 06:58:15;;;;;;;;;;;22.30;99.90;;;;;;5071034;28;19975;-83
2023/06/09 07:00:41;;;;;;;;;;;22.50;99.90;;;;;;5067836;28;19935;-84
2023/06/09 07:03:09;;;;;;;;;;;22.50;99.90;;;;;;5071681;28;20395;-83
2023/06/09 07:05:35;;;;;;;;;;;22.60;99.90;;;;;;5072989;28;19924;-83
2023/06/09 07:08:00;;;;;;;;;;;22.70;99.90;;;;;;5072262;28;19939;-87
2023/06/09 07:10:26;;;;;;;;;;;22.90;99.90;;;;;;5066438;28;20015;-83
2023/06/09 07:12:52;;;;;;;;;;;23.00;99.90;;;;;;5065251;28;20061;-82
2023/06/09 07:15:17;;;;;;;;;;;23.20;99.90;;;;;;5064111;28;19928;-81
2023/06/09 07:17:43;;;;;;;;;;;23.50;99.90;;;;;;5067541;28;20359;-83
2023/06/09 07:20:10;;;;;;;;;;;23.50;99.90;;;;;;5070273;28;19931;-83
2023/06/09 07:22:39;;;;;;;;;;;23.60;99.90;;;;;;5067241;28;20025;-87
2023/06/09 07:25:05;;;;;;;;;;;23.60;99.90;;;;;;5063504;28;19928;-83
2023/06/09 07:27:30;;;;;;;;;;;23.70;99.90;;;;;;5067375;28;19924;-85
2023/06/09 07:29:56;;;;;;;;;;;23.70;99.90;;;;;;5066401;28;20452;-89
2023/06/09 07:32:22;;;;;;;;;;;23.90;99.80;;;;;;5067439;28;19924;-82
2023/06/09 07:34:47;;;;;;;;;;;24.10;99.60;;;;;;5069420;28;19972;-82
2023/06/09 07:37:13;;;;;;;;;;;24.20;98.70;;;;;;5070409;28;19924;-83
2023/06/09 07:39:38;;;;;;;;;;;24.40;96.60;;;;;;5070871;28;19924;-82
2023/06/09 07:42:05;;;;;;;;;;;24.50;97.60;;;;;;5070516;28;19940;-83
2023/06/09 07:44:30;;;;;;;;;;;24.70;94.60;;;;;;5072163;28;20462;-87
2023/06/09 07:46:56;;;;;;;;;;;24.80;94.10;;;;;;5071257;28;20015;-84
2023/06/09 07:49:21;;;;;;;;;;;24.90;95.40;;;;;;5070171;28;19924;-82
2023/06/09 07:51:49;;;;;;;;;;;25.10;94.80;;;;;;5067991;28;19928;-82
2023/06/09 07:54:15;;;;;;;;;;;25.30;93.60;;;;;;5061565;28;20000;-82
2023/06/09 07:56:40;;;;;;;;;;;25.30;92.30;;;;;;5068269;28;19959;-83
2023/06/09 07:59:06;;;;;;;;;;;25.40;91.90;;;;;;5068536;28;20015;-84
2023/06/09 08:01:37;;;;;;;;;;;25.40;93.70;;;;;;5068932;28;20329;-84
2023/06/09 08:04:03;;;;;;;;;;;25.40;93.20;;;;;;5066641;28;19933;-83
2023/06/09 08:06:29;;;;;;;;;;;25.50;92.30;;;;;;5071217;28;19979;-83
2023/06/09 08:08:55;;;;;;;;;;;25.60;91.30;;;;;;5070014;28;20359;-82
2023/06/09 08:11:20;;;;;;;;;;;25.90;91.70;;;;;;5067149;28;19924;-87
2023/06/09 08:13:46;;;;;;;;;;;26.10;93.30;;;;;;5069130;28;19928;-81
2023/06/09 08:16:11;;;;;;;;;;;26.40;88.50;;;;;;5069000;28;19932;-84
2023/06/09 08:18:37;;;;;;;;;;;26.40;90.20;;;;;;5067585;28;20019;-83
2023/06/09 08:21:04;;;;;;;;;;;26.10;90.50;;;;;;5071874;28;19928;-82
2023/06/09 08:23:29;;;;;;;;;;;26.10;90.80;;;;;;5070877;28;20272;-83
2023/06/09 08:25:55;;;;;;;;;;;26.00;90.20;;;;;;5070619;28;20011;-82
2023/06/09 08:28:21;;;;;;;;;;;26.00;92.20;;;;;;5067287;28;19951;-83
2023/06/09 08:30:46;;;;;;;;;;;26.10;90.10;;;;;;5065462;28;19950;-83
2023/06/09 08:33:12;;;;;;;;;;;26.20;90.20;;;;;;5068822;28;19951;-83
2023/06/09 08:35:37;;;;;;;;;;;26.20;90.40;;;;;;5049101;28;19978;-82
2023/06/09 08:38:03;;;;;;;;;;;26.30;90.30;;;;;;5058850;28;19936;-83
2023/06/09 08:40:28;;;;;;;;;;;26.30;88.20;;;;;;5065748;28;20315;-88
2023/06/09 08:42:55;;;;;;;;;;;26.60;91.60;;;;;;5060585;28;20004;-81
2023/06/09 08:45:22;;;;;;;;;;;26.70;90.70;;;;;;5058552;28;20363;-82
2023/06/09 08:47:48;;;;;;;;;;;26.80;92.30;;;;;;5065655;28;19924;-83
2023/06/09 08:50:16;;;;;;;;;;;26.70;86.70;;;;;;5067450;28;20405;-82
2023/06/09 08:52:42;;;;;;;;;;;26.70;87.40;;;;;;5061744;28;20336;-81
2023/06/09 08:55:08;;;;;;;;;;;26.70;89.90;;;;;;5064891;28;19972;-87
2023/06/09 08:57:34;;;;;;;;;;;26.70;91.10;;;;;;5067733;28;19928;-83
2023/06/09 09:00:00;;;;;;;;;;;26.90;90.10;;;;;;5064335;28;21204;-82
2023/06/09 09:02:26;;;;;;;;;;;27.10;91.10;;;;;;5063330;28;19928;-82
2023/06/09 09:04:52;;;;;;;;;;;27.10;87.20;;;;;;5062701;28;19951;-86
2023/06/09 09:07:18;;;;;;;;;;;27.20;87.50;;;;;;5063249;28;20407;-83
2023/06/09 09:09:43;;;;;;;;;;;27.30;86.80;;;;;;5065714;28;19931;-81
2023/06/09 09:12:12;;;;;;;;;;;27.30;84.90;;;;;;5064029;28;20706;-84
2023/06/09 09:14:44;;;;;;;;;;;27.50;86.50;;;;;;5063355;28;19966;-83
2023/06/09 09:17:10;;;;;;;;;;;27.50;86.40;;;;;;5065961;28;20413;-83
2023/06/09 09:19:36;;;;;;;;;;;27.40;85.00;;;;;;5062886;28;19924;-84
2023/06/09 09:22:06;;;;;;;;;;;27.40;89.00;;;;;;5061217;28;19929;-83
2023/06/09 09:24:31;;;;;;;;;;;27.70;90.00;;;;;;5064105;28;20280;-86
2023/06/09 09:26:57;;;;;;;;;;;27.80;85.10;;;;;;5065554;28;19994;-87
2023/06/09 09:29:25;;;;;;;;;;;28.00;87.80;;;;;;5063243;28;19955;-82
2023/06/09 09:31:55;;;;;;;;;;;28.20;83.60;;;;;;5067225;28;20353;-83
2023/06/09 09:34:21;;;;;;;;;;;28.20;84.40;;;;;;5062333;28;19929;-81
2023/06/09 09:36:46;;;;;;;;;;;28.20;85.90;;;;;;5064578;28;19931;-82
2023/06/09 09:39:12;;;;;;;;;;;28.10;85.10;;;;;;5032238;28;19924;-82
2023/06/09 09:41:37;;;;;;;;;;;28.10;80.90;;;;;;5065583;28;19924;-85
2023/06/09 09:44:03;;;;;;;;;;;28.20;81.40;;;;;;5060359;28;19956;-81
2023/06/09 09:46:36;;;;;;;;;;;28.40;77.80;;;;;;5065130;28;19924;-83
2023/06/09 09:49:02;;;;;;;;;;;28.40;81.30;;;;;;5061945;28;19924;-84
2023/06/09 09:51:27;;;;;;;;;;;28.70;82.40;;;;;;5063104;28;19931;-82
2023/06/09 09:53:57;;;;;;;;;;;28.80;79.60;;;;;;5066208;28;19955;-83
2023/06/09 09:56:22;;;;;;;;;;;28.80;80.50;;;;;;5065948;28;19964;-82
2023/06/09 09:58:50;;;;;;;;;;;28.90;78.30;;;;;;5059977;28;20356;-83
2023/06/09 10:01:18;;;;;;;;;;;29.00;78.50;;;;;;5067295;28;19924;-82
2023/06/09 10:03:45;;;;;;;;;;;29.20;75.70;;;;;;5066588;28;19940;-88
2023/06/09 10:06:13;;;;;;;;;;;29.30;75.40;;;;;;5064514;28;19997;-82
2023/06/09 10:08:39;;;;;;;;;;;29.40;75.50;;;;;;5061419;28;19924;-83
2023/06/09 10:11:06;;;;;;;;;;;29.50;77.00;;;;;;5065118;28;19928;-87
2023/06/09 10:13:31;;;;;;;;;;;29.70;73.60;;;;;;5066547;28;20136;-86
2023/06/09 10:15:57;;;;;;;;;;;29.80;73.30;;;;;;5063192;28;20023;-82
2023/06/09 10:18:23;;;;;;;;;;;29.90;72.00;;;;;;5066923;28;19928;-83
2023/06/09 10:20:51;;;;;;;;;;;30.10;72.50;;;;;;5065895;28;19929;-80
2023/06/09 10:23:17;;;;;;;;;;;30.20;73.20;;;;;;5069863;28;19940;-84
2023/06/09 10:25:45;;;;;;;;;;;30.20;70.80;;;;;;5070624;28;20891;-84
2023/06/09 10:28:12;;;;;;;;;;;30.30;68.90;;;;;;5068457;28;20089;-81
2023/06/09 10:30:37;;;;;;;;;;;30.40;71.50;;;;;;5068572;28;19925;-81
2023/06/09 10:33:13;;;;;;;;;;;30.60;69.20;;;;;;5069892;28;19940;-87
2023/06/09 10:35:40;;;;;;;;;;;30.70;70.50;;;;;;5068976;28;20311;-82
2023/06/09 10:38:24;;;;;;;;;;;30.70;68.60;;;;;;5069175;28;20363;-84
2023/06/09 10:40:53;;;;;;;;;;;30.50;69.30;;;;;;5069004;28;19929;-83
2023/06/09 10:43:29;;;;;;;;;;;30.40;62.80;;;;;;5068373;28;20379;-83
2023/06/09 10:45:56;;;;;;;;;;;30.40;67.10;;;;;;5068751;28;19924;-83
2023/06/09 10:48:40;;;;;;;;;;;30.60;65.30;;;;;;5068963;28;19929;-84
2023/06/09 10:51:24;;;;;;;;;;;30.60;66.10;;;;;;5066440;28;19928;-82
2023/06/09 10:54:17;;;;;;;;;;;30.60;67.30;;;;;;5069241;28;19928;-82
2023/06/09 10:56:46;;;;;;;;;;;30.70;67.50;;;;;;5066502;28;19939;-83
2023/06/09 10:59:30;;;;;;;;;;;30.80;64.30;;;;;;5065114;28;19929;-82
2023/06/09 11:02:15;;;;;;;;;;;31.00;61.40;;;;;;5049567;28;19928;-84
2023/06/09 11:04:44;;;;;;;;;;;30.90;63.60;;;;;;5065352;28;19936;-83
2023/06/09 11:07:29;;;;;;;;;;;31.00;64.90;;;;;;5066991;28;19934;-83
2023/06/09 11:09:58;;;;;;;;;;;31.20;62.70;;;;;;5066348;28;19929;-83
2023/06/09 11:12:26;;;;;;;;;;;31.20;60.30;;;;;;5068544;28;19932;-84
2023/06/09 11:14:57;;;;;;;;;;;31.20;60.70;;;;;;5070894;28;20022;-83
2023/06/09 11:17:25;;;;;;;;;;;31.20;59.60;;;;;;5068312;28;19933;-84
2023/06/09 11:20:11;;;;;;;;;;;31.20;61.90;;;;;;5067170;28;19929;-83
2023/06/09 11:22:37;;;;;;;;;;;31.30;56.30;;;;;;5063497;28;20258;-85
2023/06/09 11:25:02;;;;;;;;;;;31.40;61.60;;;;;;5068469;28;19981;-84
2023/06/09 11:27:28;;;;;;;;;;;31.40;58.90;;;;;;5069892;28;20418;-83
2023/06/09 11:30:18;;;;;;;;;;;31.40;59.10;;;;;;5067862;28;20015;-85
2023/06/09 11:33:16;;;;;;;;;;;31.20;58.80;;;;;;5058721;28;19932;-83
2023/06/09 11:35:44;;;;;;;;;;;31.20;58.80;;;;;;5047730;28;19924;-82
2023/06/09 11:38:11;;;;;;;;;;;31.20;58.50;;;;;;5090075;28;20244;-85
2023/06/09 11:40:48;;;;;;;;;;;31.30;58.80;;;;;;5068606;28;20272;-83
2023/06/09 11:43:14;;;;;;;;;;;31.30;58.20;;;;;;5072979;28;19931;-84
2023/06/09 11:45:40;;;;;;;;;;;31.40;58.00;;;;;;5070589;28;19984;-82
2023/06/09 11:48:06;;;;;;;;;;;31.40;56.00;;;;;;5080140;28;20431;-83
2023/06/09 11:50:45;;;;;;;;;;;31.50;58.00;;;;;;5068717;28;20125;-85
2023/06/09 11:53:11;;;;;;;;;;;31.60;57.50;;;;;;5070076;28;19928;-83
2023/06/09 11:55:37;;;;;;;;;;;31.60;56.30;;;;;;5076029;28;19951;-82
2023/06/09 11:58:05;;;;;;;;;;;31.60;60.90;;;;;;5076849;28;19929;-87
2023/06/09 12:00:32;;;;;;;;;;;31.70;55.30;;;;;;5066745;28;19935;-83
2023/06/09 12:02:58;;;;;;;;;;;31.70;55.60;;;;;;5072357;28;19925;-82
2023/06/09 12:05:30;;;;;;;;;;;31.80;57.30;;;;;;5074770;28;20268;-82
2023/06/09 12:07:56;;;;;;;;;;;31.70;58.00;;;;;;5050459;28;19924;-83
2023/06/09 12:10:28;;;;;;;;;;;31.60;56.40;;;;;;5077419;28;19931;-83
2023/06/09 12:12:54;;;;;;;;;;;31.60;57.70;;;;;;5075863;28;19929;-82
2023/06/09 12:15:26;;;;;;;;;;;31.70;58.60;;;;;;5071467;28;20315;-83
2023/06/09 12:17:52;;;;;;;;;;;31.70;55.80;;;;;;5068821;28;19924;-83
2023/06/09 12:20:27;;;;;;;;;;;31.60;56.10;;;;;;5067143;28;19940;-83
2023/06/09 12:22:54;;;;;;;;;;;31.60;54.70;;;;;;5073035;28;19997;-81
2023/06/09 12:25:22;;;;;;;;;;;31.60;57.90;;;;;;5058577;28;20337;-86
2023/06/09 12:27:48;;;;;;;;;;;31.60;57.20;;;;;;5066114;28;20007;-82
2023/06/09 12:30:32;;;;;;;;;;;31.50;56.30;;;;;;5062639;28;20011;-84
2023/06/09 12:33:02;;;;;;;;;;;31.50;55.80;;;;;;5063344;28;19940;-82
2023/06/09 12:35:36;;;;;;;;;;;31.40;54.80;;;;;;5065318;28;19939;-83
2023/06/09 12:38:08;;;;;;;;;;;31.50;56.50;;;;;;5067582;28;19924;-82
2023/06/09 12:40:41;;;;;;;;;;;31.60;56.30;;;;;;5065141;28;20330;-83
2023/06/09 12:43:07;;;;;;;;;;;31.60;54.80;;;;;;5072230;28;19929;-84
2023/06/09 12:45:32;;;;;;;;;;;31.60;55.20;;;;;;5067867;28;19936;-83
2023/06/09 12:48:04;;;;;;;;;;;31.60;55.70;;;;;;5071955;28;19947;-84
2023/06/09 12:50:29;;;;;;;;;;;31.70;54.60;;;;;;5056540;28;19990;-83
2023/06/09 12:52:55;;;;;;;;;;;31.70;54.80;;;;;;5058609;28;20343;-82
2023/06/09 12:55:21;;;;;;;;;;;31.70;56.10;;;;;;5059420;28;19929;-84
2023/06/09 12:57:46;;;;;;;;;;;31.80;55.80;;;;;;5063603;28;20016;-83
2023/06/09 13:00:12;;;;;;;;;;;31.90;54.50;;;;;;5066052;28;19943;-85
2023/06/09 13:02:38;;;;;;;;;;;31.80;54.10;;;;;;5054779;28;19924;-84
2023/06/09 13:05:03;;;;;;;;;;;31.80;53.20;;;;;;5051873;28;19924;-83
2023/06/09 13:07:29;;;;;;;;;;;31.80;53.80;;;;;;5065860;28;20071;-83
2023/06/09 13:09:55;;;;;;;;;;;31.80;54.30;;;;;;5057408;28;19925;-82
2023/06/09 13:12:20;;;;;;;;;;;31.80;54.90;;;;;;5067644;28;19929;-81
2023/06/09 13:14:46;;;;;;;;;;;31.50;52.90;;;;;;5068689;28;20015;-83
2023/06/09 13:17:11;;;;;;;;;;;31.30;54.90;;;;;;5072587;28;20291;-82
2023/06/09 13:19:37;;;;;;;;;;;31.30;54.90;;;;;;5066630;28;19974;-82
2023/06/09 13:22:02;;;;;;;;;;;31.30;54.40;;;;;;5064983;28;19935;-82
2023/06/09 13:24:28;;;;;;;;;;;31.30;53.40;;;;;;5055214;28;20350;-84
2023/06/09 13:26:55;;;;;;;;;;;31.20;52.00;;;;;;5057983;28;19925;-82
2023/06/09 13:29:21;;;;;;;;;;;31.10;53.00;;;;;;5062460;28;19967;-82
2023/06/09 13:31:46;;;;;;;;;;;30.90;54.20;;;;;;5062234;28;20086;-84
2023/06/09 13:34:13;;;;;;;;;;;30.60;52.40;;;;;;5042466;28;20387;-83
2023/06/09 13:36:39;;;;;;;;;;;30.50;55.70;;;;;;5060698;28;19931;-83
2023/06/09 13:39:05;;;;;;;;;;;30.70;54.90;;;;;;5064343;28;20272;-83
2023/06/09 13:41:31;;;;;;;;;;;30.90;55.70;;;;;;5070790;28;19932;-82
2023/06/09 13:43:59;;;;;;;;;;;31.00;55.60;;;;;;5066009;28;19993;-83
2023/06/09 13:46:24;;;;;;;;;;;31.10;54.30;;;;;;5064372;28;20394;-82
2023/06/09 13:48:50;;;;;;;;;;;30.90;53.50;;;;;;5067705;28;19924;-83
2023/06/09 13:51:15;;;;;;;;;;;30.80;53.40;;;;;;5061326;28;19925;-83
2023/06/09 13:53:41;;;;;;;;;;;30.80;54.30;;;;;;5073232;28;20018;-83
2023/06/09 13:56:07;;;;;;;;;;;30.90;52.90;;;;;;5070429;28;20298;-85
2023/06/09 13:58:32;;;;;;;;;;;30.90;54.30;;;;;;5075003;28;20003;-84
2023/06/09 14:00:58;;;;;;;;;;;30.90;54.30;;;;;;5074235;28;19931;-82
2023/06/09 14:03:23;;;;;;;;;;;31.00;54.80;;;;;;5066075;28;19934;-84
2023/06/09 14:05:49;;;;;;;;;;;31.00;52.30;;;;;;5075673;28;19960;-82
2023/06/09 14:08:15;;;;;;;;;;;30.70;52.50;;;;;;5070456;28;19936;-83
2023/06/09 14:10:41;;;;;;;;;;;30.50;54.00;;;;;;5071023;28;20265;-83
2023/06/09 14:13:06;;;;;;;;;;;30.30;55.80;;;;;;5071850;28;20016;-83
2023/06/09 14:15:32;;;;;;;;;;;30.30;54.60;;;;;;5068209;28;19924;-85